sensor_id;sensor_type;location;lat;lon;timestamp;P1;durP1;ratioP1;P2;durP2;ratioP2
76157;SDS011;64907;51.574;6.502;2023-07-22T00:01:00;16.77;;;12.27;;
76157;SDS011;64907;51.574;6.502;2023-07-22T00:03:26;17.55;;;12.10;;
76157;SDS011;64907;51.574;6.502;2023-07-22T00:06:01;15.05;;;11.77;;
76157;SDS011;64907;51.574;6.502;2023-07-22T00:08:37;14.95;;;12.27;;
76157;SDS011;64907;51.574;6.502;2023-07-22T00:11:03;13.48;;;11.82;;
76157;SDS011;64907;51.574;6.502;2023-07-22T00:13:35;13.05;;;11.75;;
76157;SDS011;64907;51.574;6.502;2023-07-22T00:16:00;13.80;;;12.40;;
76157;SDS011;64907;51.574;6.502;2023-07-22T00:18:27;14.60;;;12.30;;
76157;SDS011;64907;51.574;6.502;2023-07-22T00:20:53;13.88;;;12.27;;
76157;SDS011;64907;51.574;6.502;2023-07-22T00:23:19;14.88;;;12.35;;
76157;SDS011;64907;51.574;6.502;2023-07-22T00:25:45;15.80;;;11.70;;
76157;SDS011;64907;51.574;6.502;2023-07-22T00:28:10;12.50;;;11.23;;
76157;SDS011;64907;51.574;6.502;2023-07-22T00:30:35;13.43;;;11.23;;
76157;SDS011;64907;51.574;6.502;2023-07-22T00:33:00;12.87;;;11.57;;
76157;SDS011;64907;51.574;6.502;2023-07-22T00:35:26;14.43;;;11.57;;
76157;SDS011;64907;51.574;6.502;2023-07-22T00:40:53;13.05;;;11.73;;
76157;SDS011;64907;51.574;6.502;2023-07-22T00:43:19;12.45;;;11.15;;
76157;SDS011;64907;51.574;6.502;2023-07-22T00:45:44;13.13;;;11.13;;
76157;SDS011;64907;51.574;6.502;2023-07-22T00:48:09;15.10;;;10.83;;
76157;SDS011;64907;51.574;6.502;2023-07-22T00:50:34;12.45;;;11.25;;
76157;SDS011;64907;51.574;6.502;2023-07-22T00:53:00;12.35;;;11.05;;
76157;SDS011;64907;51.574;6.502;2023-07-22T00:55:25;12.07;;;10.85;;
76157;SDS011;64907;51.574;6.502;2023-07-22T00:57:54;12.73;;;11.32;;
76157;SDS011;64907;51.574;6.502;2023-07-22T01:00:19;13.27;;;11.30;;
76157;SDS011;64907;51.574;6.502;2023-07-22T01:02:44;14.30;;;11.23;;
76157;SDS011;64907;51.574;6.502;2023-07-22T01:05:10;14.57;;;11.63;;
76157;SDS011;64907;51.574;6.502;2023-07-22T01:07:37;18.77;;;11.95;;
76157;SDS011;64907;51.574;6.502;2023-07-22T01:10:05;14.70;;;11.40;;
76157;SDS011;64907;51.574;6.502;2023-07-22T01:12:38;13.45;;;11.40;;
76157;SDS011;64907;51.574;6.502;2023-07-22T01:15:05;16.58;;;11.38;;
76157;SDS011;64907;51.574;6.502;2023-07-22T01:17:33;12.43;;;11.13;;
76157;SDS011;64907;51.574;6.502;2023-07-22T01:19:58;12.18;;;10.88;;
76157;SDS011;64907;51.574;6.502;2023-07-22T01:22:23;16.95;;;11.75;;
76157;SDS011;64907;51.574;6.502;2023-07-22T01:24:51;13.50;;;11.95;;
76157;SDS011;64907;51.574;6.502;2023-07-22T01:27:17;14.55;;;11.48;;
76157;SDS011;64907;51.574;6.502;2023-07-22T01:29:42;13.50;;;10.80;;
76157;SDS011;64907;51.574;6.502;2023-07-22T01:32:08;12.65;;;11.40;;
76157;SDS011;64907;51.574;6.502;2023-07-22T01:34:34;12.85;;;10.75;;
76157;SDS011;64907;51.574;6.502;2023-07-22T01:36:59;13.48;;;12.07;;
76157;SDS011;64907;51.574;6.502;2023-07-22T01:39:25;14.07;;;11.98;;
76157;SDS011;64907;51.574;6.502;2023-07-22T01:41:50;14.65;;;12.48;;
76157;SDS011;64907;51.574;6.502;2023-07-22T01:44:16;12.97;;;11.43;;
76157;SDS011;64907;51.574;6.502;2023-07-22T01:46:41;13.90;;;11.48;;
76157;SDS011;64907;51.574;6.502;2023-07-22T01:49:10;14.57;;;10.60;;
76157;SDS011;64907;51.574;6.502;2023-07-22T01:51:36;13.05;;;11.80;;
76157;SDS011;64907;51.574;6.502;2023-07-22T01:54:05;15.95;;;11.13;;
76157;SDS011;64907;51.574;6.502;2023-07-22T01:56:31;13.55;;;10.82;;
76157;SDS011;64907;51.574;6.502;2023-07-22T01:58:56;11.93;;;10.73;;
76157;SDS011;64907;51.574;6.502;2023-07-22T02:03:49;13.45;;;11.65;;
76157;SDS011;64907;51.574;6.502;2023-07-22T02:06:22;13.27;;;11.32;;
76157;SDS011;64907;51.574;6.502;2023-07-22T02:08:47;13.13;;;11.75;;
76157;SDS011;64907;51.574;6.502;2023-07-22T02:11:16;14.65;;;11.57;;
76157;SDS011;64907;51.574;6.502;2023-07-22T02:13:41;13.10;;;11.73;;
76157;SDS011;64907;51.574;6.502;2023-07-22T02:16:09;12.70;;;10.40;;
76157;SDS011;64907;51.574;6.502;2023-07-22T02:18:37;14.25;;;10.77;;
76157;SDS011;64907;51.574;6.502;2023-07-22T02:21:02;12.60;;;11.20;;
76157;SDS011;64907;51.574;6.502;2023-07-22T02:23:29;17.70;;;11.68;;
76157;SDS011;64907;51.574;6.502;2023-07-22T02:25:54;13.52;;;11.07;;
76157;SDS011;64907;51.574;6.502;2023-07-22T02:28:20;11.95;;;10.60;;
76157;SDS011;64907;51.574;6.502;2023-07-22T02:33:21;16.70;;;11.73;;
76157;SDS011;64907;51.574;6.502;2023-07-22T02:35:49;12.55;;;11.27;;
76157;SDS011;64907;51.574;6.502;2023-07-22T02:38:15;13.32;;;11.70;;
76157;SDS011;64907;51.574;6.502;2023-07-22T02:40:40;15.60;;;11.33;;
76157;SDS011;64907;51.574;6.502;2023-07-22T02:43:05;13.90;;;11.75;;
76157;SDS011;64907;51.574;6.502;2023-07-22T02:45:32;13.43;;;11.45;;
76157;SDS011;64907;51.574;6.502;2023-07-22T02:47:57;12.20;;;10.90;;
76157;SDS011;64907;51.574;6.502;2023-07-22T02:50:22;15.98;;;11.52;;
76157;SDS011;64907;51.574;6.502;2023-07-22T02:52:48;13.20;;;11.60;;
76157;SDS011;64907;51.574;6.502;2023-07-22T02:55:14;13.00;;;11.57;;
76157;SDS011;64907;51.574;6.502;2023-07-22T02:57:39;14.23;;;12.30;;
76157;SDS011;64907;51.574;6.502;2023-07-22T03:00:05;15.65;;;11.55;;
76157;SDS011;64907;51.574;6.502;2023-07-22T03:02:34;13.00;;;11.70;;
76157;SDS011;64907;51.574;6.502;2023-07-22T03:04:59;13.30;;;11.85;;
76157;SDS011;64907;51.574;6.502;2023-07-22T03:07:24;13.93;;;11.33;;
76157;SDS011;64907;51.574;6.502;2023-07-22T03:09:51;15.68;;;12.20;;
76157;SDS011;64907;51.574;6.502;2023-07-22T03:12:16;12.80;;;11.18;;
76157;SDS011;64907;51.574;6.502;2023-07-22T03:14:41;13.53;;;11.97;;
76157;SDS011;64907;51.574;6.502;2023-07-22T03:17:07;15.30;;;11.68;;
76157;SDS011;64907;51.574;6.502;2023-07-22T03:19:33;16.00;;;12.05;;
76157;SDS011;64907;51.574;6.502;2023-07-22T03:21:58;13.40;;;11.47;;
76157;SDS011;64907;51.574;6.502;2023-07-22T03:24:23;13.93;;;11.75;;
76157;SDS011;64907;51.574;6.502;2023-07-22T03:26:50;15.73;;;12.38;;
76157;SDS011;64907;51.574;6.502;2023-07-22T03:29:15;12.85;;;11.45;;
76157;SDS011;64907;51.574;6.502;2023-07-22T03:31:40;12.57;;;11.17;;
76157;SDS011;64907;51.574;6.502;2023-07-22T03:34:05;12.88;;;11.63;;
76157;SDS011;64907;51.574;6.502;2023-07-22T03:36:30;13.73;;;12.00;;
76157;SDS011;64907;51.574;6.502;2023-07-22T03:38:59;13.57;;;11.77;;
76157;SDS011;64907;51.574;6.502;2023-07-22T03:41:24;15.25;;;11.23;;
76157;SDS011;64907;51.574;6.502;2023-07-22T03:43:50;14.40;;;11.68;;
76157;SDS011;64907;51.574;6.502;2023-07-22T03:46:15;14.13;;;11.83;;
76157;SDS011;64907;51.574;6.502;2023-07-22T03:48:40;12.70;;;11.37;;
76157;SDS011;64907;51.574;6.502;2023-07-22T03:51:05;11.75;;;10.55;;
76157;SDS011;64907;51.574;6.502;2023-07-22T03:56:01;15.38;;;10.77;;
76157;SDS011;64907;51.574;6.502;2023-07-22T03:58:29;12.83;;;10.97;;
76157;SDS011;64907;51.574;6.502;2023-07-22T04:00:54;13.63;;;10.98;;
76157;SDS011;64907;51.574;6.502;2023-07-22T04:03:19;13.03;;;11.67;;
76157;SDS011;64907;51.574;6.502;2023-07-22T04:05:52;12.80;;;11.00;;
76157;SDS011;64907;51.574;6.502;2023-07-22T04:08:27;13.48;;;10.38;;
76157;SDS011;64907;51.574;6.502;2023-07-22T04:10:53;12.15;;;10.52;;
76157;SDS011;64907;51.574;6.502;2023-07-22T04:13:20;12.75;;;10.43;;
76157;SDS011;64907;51.574;6.502;2023-07-22T04:15:46;12.48;;;10.43;;
76157;SDS011;64907;51.574;6.502;2023-07-22T04:18:11;12.75;;;10.75;;
76157;SDS011;64907;51.574;6.502;2023-07-22T04:20:36;12.57;;;10.97;;
76157;SDS011;64907;51.574;6.502;2023-07-22T04:23:02;14.63;;;10.52;;
76157;SDS011;64907;51.574;6.502;2023-07-22T04:25:27;12.73;;;11.17;;
76157;SDS011;64907;51.574;6.502;2023-07-22T04:27:52;13.60;;;10.67;;
76157;SDS011;64907;51.574;6.502;2023-07-22T04:30:17;11.90;;;10.37;;
76157;SDS011;64907;51.574;6.502;2023-07-22T04:32:47;12.13;;;10.77;;
76157;SDS011;64907;51.574;6.502;2023-07-22T04:35:12;13.55;;;11.73;;
76157;SDS011;64907;51.574;6.502;2023-07-22T04:40:06;12.80;;;10.45;;
76157;SDS011;64907;51.574;6.502;2023-07-22T04:42:36;14.77;;;11.57;;
76157;SDS011;64907;51.574;6.502;2023-07-22T04:45:01;16.27;;;10.50;;
76157;SDS011;64907;51.574;6.502;2023-07-22T04:47:27;13.30;;;11.50;;
76157;SDS011;64907;51.574;6.502;2023-07-22T04:52:22;13.18;;;11.10;;
76157;SDS011;64907;51.574;6.502;2023-07-22T04:54:47;14.40;;;11.10;;
76157;SDS011;64907;51.574;6.502;2023-07-22T04:57:19;13.43;;;12.03;;
76157;SDS011;64907;51.574;6.502;2023-07-22T04:59:45;11.05;;;9.90;;
76157;SDS011;64907;51.574;6.502;2023-07-22T05:02:13;13.27;;;11.48;;
76157;SDS011;64907;51.574;6.502;2023-07-22T05:04:38;12.65;;;10.48;;
76157;SDS011;64907;51.574;6.502;2023-07-22T05:07:04;14.45;;;11.40;;
76157;SDS011;64907;51.574;6.502;2023-07-22T05:09:30;12.55;;;11.23;;
76157;SDS011;64907;51.574;6.502;2023-07-22T05:11:55;13.85;;;11.40;;
76157;SDS011;64907;51.574;6.502;2023-07-22T05:14:21;14.50;;;11.63;;
76157;SDS011;64907;51.574;6.502;2023-07-22T05:16:54;15.53;;;11.60;;
76157;SDS011;64907;51.574;6.502;2023-07-22T05:19:26;15.25;;;10.90;;
76157;SDS011;64907;51.574;6.502;2023-07-22T05:21:55;13.32;;;11.07;;
76157;SDS011;64907;51.574;6.502;2023-07-22T05:29:55;12.77;;;10.65;;
76157;SDS011;64907;51.574;6.502;2023-07-22T05:32:21;16.02;;;11.65;;
76157;SDS011;64907;51.574;6.502;2023-07-22T05:34:46;12.73;;;10.98;;
76157;SDS011;64907;51.574;6.502;2023-07-22T05:37:11;16.30;;;12.20;;
76157;SDS011;64907;51.574;6.502;2023-07-22T05:39:36;14.90;;;10.75;;
76157;SDS011;64907;51.574;6.502;2023-07-22T05:42:17;11.97;;;10.67;;
76157;SDS011;64907;51.574;6.502;2023-07-22T05:44:42;15.98;;;10.68;;
76157;SDS011;64907;51.574;6.502;2023-07-22T05:49:37;12.93;;;11.30;;
76157;SDS011;64907;51.574;6.502;2023-07-22T05:54:32;14.38;;;11.00;;
76157;SDS011;64907;51.574;6.502;2023-07-22T05:56:58;11.27;;;10.18;;
76157;SDS011;64907;51.574;6.502;2023-07-22T05:59:23;15.38;;;11.00;;
76157;SDS011;64907;51.574;6.502;2023-07-22T06:01:56;13.15;;;10.48;;
76157;SDS011;64907;51.574;6.502;2023-07-22T06:04:21;12.02;;;10.70;;
76157;SDS011;64907;51.574;6.502;2023-07-22T06:06:48;11.60;;;10.40;;
76157;SDS011;64907;51.574;6.502;2023-07-22T06:09:13;12.15;;;10.88;;
76157;SDS011;64907;51.574;6.502;2023-07-22T06:11:53;12.73;;;11.38;;
76157;SDS011;64907;51.574;6.502;2023-07-22T06:22:28;15.65;;;11.25;;
76157;SDS011;64907;51.574;6.502;2023-07-22T06:25:00;17.73;;;12.02;;
76157;SDS011;64907;51.574;6.502;2023-07-22T06:27:26;15.20;;;11.73;;
76157;SDS011;64907;51.574;6.502;2023-07-22T06:29:51;14.80;;;11.23;;
76157;SDS011;64907;51.574;6.502;2023-07-22T06:32:20;14.63;;;11.02;;
76157;SDS011;64907;51.574;6.502;2023-07-22T06:34:45;11.95;;;10.75;;
76157;SDS011;64907;51.574;6.502;2023-07-22T06:39:47;13.20;;;11.80;;
76157;SDS011;64907;51.574;6.502;2023-07-22T06:42:13;15.32;;;11.07;;
76157;SDS011;64907;51.574;6.502;2023-07-22T06:44:39;14.05;;;11.02;;
76157;SDS011;64907;51.574;6.502;2023-07-22T06:47:12;13.75;;;11.55;;
76157;SDS011;64907;51.574;6.502;2023-07-22T06:49:38;18.73;;;12.38;;
76157;SDS011;64907;51.574;6.502;2023-07-22T06:52:07;15.15;;;12.15;;
76157;SDS011;64907;51.574;6.502;2023-07-22T06:54:44;16.52;;;12.40;;
76157;SDS011;64907;51.574;6.502;2023-07-22T07:04:39;18.95;;;12.73;;
76157;SDS011;64907;51.574;6.502;2023-07-22T07:07:12;15.50;;;11.27;;
76157;SDS011;64907;51.574;6.502;2023-07-22T07:09:38;16.02;;;11.20;;
76157;SDS011;64907;51.574;6.502;2023-07-22T07:12:03;16.15;;;10.73;;
76157;SDS011;64907;51.574;6.502;2023-07-22T07:14:28;20.88;;;12.35;;
76157;SDS011;64907;51.574;6.502;2023-07-22T07:16:55;16.25;;;11.60;;
76157;SDS011;64907;51.574;6.502;2023-07-22T07:19:20;14.55;;;11.13;;
76157;SDS011;64907;51.574;6.502;2023-07-22T07:21:45;13.33;;;10.73;;
76157;SDS011;64907;51.574;6.502;2023-07-22T07:24:11;17.70;;;11.43;;
76157;SDS011;64907;51.574;6.502;2023-07-22T07:26:39;12.40;;;10.90;;
76157;SDS011;64907;51.574;6.502;2023-07-22T07:29:04;13.10;;;10.93;;
76157;SDS011;64907;51.574;6.502;2023-07-22T07:31:29;15.27;;;10.97;;
76157;SDS011;64907;51.574;6.502;2023-07-22T07:33:55;12.65;;;9.93;;
76157;SDS011;64907;51.574;6.502;2023-07-22T07:38:50;13.48;;;11.43;;
76157;SDS011;64907;51.574;6.502;2023-07-22T07:41:15;12.87;;;11.13;;
76157;SDS011;64907;51.574;6.502;2023-07-22T07:43:43;15.10;;;10.50;;
76157;SDS011;64907;51.574;6.502;2023-07-22T07:49:02;18.73;;;11.10;;
76157;SDS011;64907;51.574;6.502;2023-07-22T07:51:28;10.40;;;9.30;;
76157;SDS011;64907;51.574;6.502;2023-07-22T07:53:54;12.60;;;10.05;;
76157;SDS011;64907;51.574;6.502;2023-07-22T07:58:49;11.82;;;9.07;;
76157;SDS011;64907;51.574;6.502;2023-07-22T08:01:15;13.20;;;9.60;;
76157;SDS011;64907;51.574;6.502;2023-07-22T08:03:41;14.38;;;9.77;;
76157;SDS011;64907;51.574;6.502;2023-07-22T08:06:07;10.80;;;8.88;;
76157;SDS011;64907;51.574;6.502;2023-07-22T08:08:40;13.00;;;8.73;;
76157;SDS011;64907;51.574;6.502;2023-07-22T08:11:06;9.55;;;8.48;;
76157;SDS011;64907;51.574;6.502;2023-07-22T08:16:10;11.63;;;8.93;;
76157;SDS011;64907;51.574;6.502;2023-07-22T08:18:37;13.85;;;8.90;;
76157;SDS011;64907;51.574;6.502;2023-07-22T08:21:03;9.45;;;8.23;;
76157;SDS011;64907;51.574;6.502;2023-07-22T08:23:28;9.70;;;7.95;;
76157;SDS011;64907;51.574;6.502;2023-07-22T08:25:55;9.65;;;7.70;;
76157;SDS011;64907;51.574;6.502;2023-07-22T08:28:20;8.05;;;7.22;;
76157;SDS011;64907;51.574;6.502;2023-07-22T08:30:47;10.68;;;7.30;;
76157;SDS011;64907;51.574;6.502;2023-07-22T08:33:13;7.70;;;7.00;;
76157;SDS011;64907;51.574;6.502;2023-07-22T08:35:39;9.27;;;6.20;;
76157;SDS011;64907;51.574;6.502;2023-07-22T08:38:11;7.15;;;6.55;;
76157;SDS011;64907;51.574;6.502;2023-07-22T08:40:37;7.70;;;6.90;;
76157;SDS011;64907;51.574;6.502;2023-07-22T08:43:03;10.48;;;7.55;;
76157;SDS011;64907;51.574;6.502;2023-07-22T08:45:37;9.93;;;7.40;;
76157;SDS011;64907;51.574;6.502;2023-07-22T08:48:06;8.18;;;7.43;;
76157;SDS011;64907;51.574;6.502;2023-07-22T08:53:12;7.30;;;6.80;;
76157;SDS011;64907;51.574;6.502;2023-07-22T08:55:37;7.90;;;7.10;;
76157;SDS011;64907;51.574;6.502;2023-07-22T08:58:05;7.43;;;6.60;;
76157;SDS011;64907;51.574;6.502;2023-07-22T09:03:06;7.50;;;6.78;;
76157;SDS011;64907;51.574;6.502;2023-07-22T09:05:49;6.90;;;6.30;;
76157;SDS011;64907;51.574;6.502;2023-07-22T09:08:15;6.60;;;5.50;;
76157;SDS011;64907;51.574;6.502;2023-07-22T09:10:42;7.00;;;6.32;;
76157;SDS011;64907;51.574;6.502;2023-07-22T09:18:46;7.13;;;6.20;;
76157;SDS011;64907;51.574;6.502;2023-07-22T09:21:13;5.97;;;5.47;;
76157;SDS011;64907;51.574;6.502;2023-07-22T09:23:47;8.00;;;5.60;;
76157;SDS011;64907;51.574;6.502;2023-07-22T09:28:55;8.48;;;6.47;;
76157;SDS011;64907;51.574;6.502;2023-07-22T09:33:56;6.00;;;5.50;;
76157;SDS011;64907;51.574;6.502;2023-07-22T09:39:29;7.40;;;5.07;;
76157;SDS011;64907;51.574;6.502;2023-07-22T09:44:43;5.75;;;5.22;;
76157;SDS011;64907;51.574;6.502;2023-07-22T09:52:17;5.40;;;4.60;;
76157;SDS011;64907;51.574;6.502;2023-07-22T09:57:17;7.88;;;5.43;;
76157;SDS011;64907;51.574;6.502;2023-07-22T09:59:43;7.70;;;5.28;;
76157;SDS011;64907;51.574;6.502;2023-07-22T10:02:08;6.78;;;5.43;;
76157;SDS011;64907;51.574;6.502;2023-07-22T10:04:36;5.80;;;5.22;;
76157;SDS011;64907;51.574;6.502;2023-07-22T10:09:44;6.13;;;5.50;;
76157;SDS011;64907;51.574;6.502;2023-07-22T10:12:12;6.50;;;5.90;;
76157;SDS011;64907;51.574;6.502;2023-07-22T10:14:41;10.77;;;5.38;;
76157;SDS011;64907;51.574;6.502;2023-07-22T10:17:13;5.63;;;4.53;;
76157;SDS011;64907;51.574;6.502;2023-07-22T10:19:39;5.50;;;5.00;;
76157;SDS011;64907;51.574;6.502;2023-07-22T10:22:04;5.73;;;5.20;;
76157;SDS011;64907;51.574;6.502;2023-07-22T10:24:33;4.97;;;4.53;;
76157;SDS011;64907;51.574;6.502;2023-07-22T10:27:01;6.95;;;4.63;;
76157;SDS011;64907;51.574;6.502;2023-07-22T10:29:27;7.55;;;4.55;;
76157;SDS011;64907;51.574;6.502;2023-07-22T10:34:29;6.07;;;5.20;;
76157;SDS011;64907;51.574;6.502;2023-07-22T10:36:55;6.33;;;4.70;;
76157;SDS011;64907;51.574;6.502;2023-07-22T10:39:24;5.03;;;4.63;;
76157;SDS011;64907;51.574;6.502;2023-07-22T10:42:19;7.78;;;4.68;;
76157;SDS011;64907;51.574;6.502;2023-07-22T10:44:39;4.80;;;4.40;;
76157;SDS011;64907;51.574;6.502;2023-07-22T10:47:04;5.65;;;3.90;;
76157;SDS011;64907;51.574;6.502;2023-07-22T10:49:48;5.15;;;3.90;;
76157;SDS011;64907;51.574;6.502;2023-07-22T10:52:15;5.20;;;3.80;;
76157;SDS011;64907;51.574;6.502;2023-07-22T10:55:03;4.07;;;3.78;;
76157;SDS011;64907;51.574;6.502;2023-07-22T11:00:04;3.33;;;3.10;;
76157;SDS011;64907;51.574;6.502;2023-07-22T11:05:06;4.65;;;3.65;;
76157;SDS011;64907;51.574;6.502;2023-07-22T11:07:32;4.10;;;3.78;;
76157;SDS011;64907;51.574;6.502;2023-07-22T11:09:57;5.68;;;3.25;;
76157;SDS011;64907;51.574;6.502;2023-07-22T11:12:29;3.63;;;3.10;;
76157;SDS011;64907;51.574;6.502;2023-07-22T11:17:31;4.45;;;3.03;;
76157;SDS011;64907;51.574;6.502;2023-07-22T11:19:58;3.33;;;3.00;;
76157;SDS011;64907;51.574;6.502;2023-07-22T11:22:39;3.33;;;3.17;;
76157;SDS011;64907;51.574;6.502;2023-07-22T11:25:08;3.45;;;3.10;;
76157;SDS011;64907;51.574;6.502;2023-07-22T11:27:33;2.83;;;2.72;;
76157;SDS011;64907;51.574;6.502;2023-07-22T11:29:59;4.30;;;3.40;;
76157;SDS011;64907;51.574;6.502;2023-07-22T11:32:26;3.65;;;3.25;;
76157;SDS011;64907;51.574;6.502;2023-07-22T11:34:51;3.65;;;3.35;;
76157;SDS011;64907;51.574;6.502;2023-07-22T11:37:17;5.47;;;3.30;;
76157;SDS011;64907;51.574;6.502;2023-07-22T11:39:52;3.65;;;3.08;;
76157;SDS011;64907;51.574;6.502;2023-07-22T11:42:17;3.55;;;3.35;;
76157;SDS011;64907;51.574;6.502;2023-07-22T11:44:42;3.20;;;3.00;;
76157;SDS011;64907;51.574;6.502;2023-07-22T11:49:59;3.10;;;2.90;;
76157;SDS011;64907;51.574;6.502;2023-07-22T11:55:02;4.13;;;2.95;;
76157;SDS011;64907;51.574;6.502;2023-07-22T11:57:36;3.42;;;3.13;;
76157;SDS011;64907;51.574;6.502;2023-07-22T12:00:07;4.13;;;3.22;;
76157;SDS011;64907;51.574;6.502;2023-07-22T12:02:35;4.60;;;3.38;;
76157;SDS011;64907;51.574;6.502;2023-07-22T12:05:04;4.25;;;2.50;;
76157;SDS011;64907;51.574;6.502;2023-07-22T12:07:32;3.38;;;2.50;;
76157;SDS011;64907;51.574;6.502;2023-07-22T12:09:59;2.42;;;2.20;;
76157;SDS011;64907;51.574;6.502;2023-07-22T12:15:14;4.47;;;2.28;;
76157;SDS011;64907;51.574;6.502;2023-07-22T12:20:17;3.92;;;2.40;;
76157;SDS011;64907;51.574;6.502;2023-07-22T12:27:47;4.25;;;2.33;;
76157;SDS011;64907;51.574;6.502;2023-07-22T12:30:12;3.30;;;2.17;;
76157;SDS011;64907;51.574;6.502;2023-07-22T12:32:38;4.73;;;2.43;;
76157;SDS011;64907;51.574;6.502;2023-07-22T12:35:05;3.40;;;2.20;;
76157;SDS011;64907;51.574;6.502;2023-07-22T12:37:33;3.70;;;2.20;;
76157;SDS011;64907;51.574;6.502;2023-07-22T12:42:34;2.92;;;2.70;;
76157;SDS011;64907;51.574;6.502;2023-07-22T12:44:59;2.40;;;2.30;;
76157;SDS011;64907;51.574;6.502;2023-07-22T12:47:25;2.70;;;2.53;;
76157;SDS011;64907;51.574;6.502;2023-07-22T12:50:05;3.27;;;2.40;;
76157;SDS011;64907;51.574;6.502;2023-07-22T12:55:11;3.15;;;2.45;;
76157;SDS011;64907;51.574;6.502;2023-07-22T12:57:37;3.90;;;2.53;;
76157;SDS011;64907;51.574;6.502;2023-07-22T13:02:45;2.13;;;2.03;;
76157;SDS011;64907;51.574;6.502;2023-07-22T13:05:10;3.13;;;2.38;;
76157;SDS011;64907;51.574;6.502;2023-07-22T13:07:38;4.33;;;2.43;;
76157;SDS011;64907;51.574;6.502;2023-07-22T13:15:35;2.33;;;2.13;;
76157;SDS011;64907;51.574;6.502;2023-07-22T13:20:29;2.05;;;1.95;;
76157;SDS011;64907;51.574;6.502;2023-07-22T13:22:55;2.40;;;2.20;;
76157;SDS011;64907;51.574;6.502;2023-07-22T13:25:20;2.37;;;2.23;;
76157;SDS011;64907;51.574;6.502;2023-07-22T13:27:51;1.93;;;1.80;;
76157;SDS011;64907;51.574;6.502;2023-07-22T13:30:19;2.78;;;2.33;;
76157;SDS011;64907;51.574;6.502;2023-07-22T13:32:45;2.13;;;1.90;;
76157;SDS011;64907;51.574;6.502;2023-07-22T13:35:13;2.13;;;2.00;;
76157;SDS011;64907;51.574;6.502;2023-07-22T13:40:10;3.05;;;2.33;;
76157;SDS011;64907;51.574;6.502;2023-07-22T13:42:37;2.22;;;2.13;;
76157;SDS011;64907;51.574;6.502;2023-07-22T13:45:03;1.98;;;1.88;;
76157;SDS011;64907;51.574;6.502;2023-07-22T13:47:28;2.35;;;2.25;;
76157;SDS011;64907;51.574;6.502;2023-07-22T13:49:54;2.42;;;2.22;;
76157;SDS011;64907;51.574;6.502;2023-07-22T13:57:35;2.33;;;2.22;;
76157;SDS011;64907;51.574;6.502;2023-07-22T14:00:00;3.42;;;2.15;;
76157;SDS011;64907;51.574;6.502;2023-07-22T14:02:26;4.43;;;2.43;;
76157;SDS011;64907;51.574;6.502;2023-07-22T14:04:51;2.35;;;2.22;;
76157;SDS011;64907;51.574;6.502;2023-07-22T14:07:17;2.50;;;2.40;;
76157;SDS011;64907;51.574;6.502;2023-07-22T14:12:20;2.75;;;2.55;;
76157;SDS011;64907;51.574;6.502;2023-07-22T14:14:46;2.50;;;2.40;;
76157;SDS011;64907;51.574;6.502;2023-07-22T14:19:40;2.47;;;2.38;;
76157;SDS011;64907;51.574;6.502;2023-07-22T14:22:06;2.30;;;2.20;;
76157;SDS011;64907;51.574;6.502;2023-07-22T14:24:32;2.60;;;2.40;;
76157;SDS011;64907;51.574;6.502;2023-07-22T14:27:04;4.63;;;2.38;;
76157;SDS011;64907;51.574;6.502;2023-07-22T14:29:29;4.63;;;2.30;;
76157;SDS011;64907;51.574;6.502;2023-07-22T14:34:34;2.40;;;2.20;;
76157;SDS011;64907;51.574;6.502;2023-07-22T14:36:59;2.97;;;2.47;;
76157;SDS011;64907;51.574;6.502;2023-07-22T14:39:34;3.70;;;2.70;;
76157;SDS011;64907;51.574;6.502;2023-07-22T14:42:01;3.13;;;2.60;;
76157;SDS011;64907;51.574;6.502;2023-07-22T14:47:09;8.80;;;2.40;;
76157;SDS011;64907;51.574;6.502;2023-07-22T14:49:34;12.53;;;3.50;;
76157;SDS011;64907;51.574;6.502;2023-07-22T14:51:59;2.33;;;2.22;;
76157;SDS011;64907;51.574;6.502;2023-07-22T14:54:31;2.63;;;2.43;;
76157;SDS011;64907;51.574;6.502;2023-07-22T14:57:03;2.33;;;2.13;;
76157;SDS011;64907;51.574;6.502;2023-07-22T14:59:28;4.47;;;2.33;;
76157;SDS011;64907;51.574;6.502;2023-07-22T15:04:32;2.20;;;2.00;;
76157;SDS011;64907;51.574;6.502;2023-07-22T15:07:04;1.77;;;1.77;;
76157;SDS011;64907;51.574;6.502;2023-07-22T15:09:32;1.90;;;1.80;;
76157;SDS011;64907;51.574;6.502;2023-07-22T15:11:57;2.80;;;1.95;;
76157;SDS011;64907;51.574;6.502;2023-07-22T15:14:24;2.10;;;2.03;;
76157;SDS011;64907;51.574;6.502;2023-07-22T15:19:20;6.80;;;2.03;;
76157;SDS011;64907;51.574;6.502;2023-07-22T15:21:52;2.40;;;1.95;;
76157;SDS011;64907;51.574;6.502;2023-07-22T15:26:47;3.38;;;2.17;;
76157;SDS011;64907;51.574;6.502;2023-07-22T15:29:15;2.40;;;2.20;;
76157;SDS011;64907;51.574;6.502;2023-07-22T15:31:41;3.10;;;1.80;;
76157;SDS011;64907;51.574;6.502;2023-07-22T15:34:07;1.95;;;1.77;;
76157;SDS011;64907;51.574;6.502;2023-07-22T15:39:08;2.00;;;1.90;;
76157;SDS011;64907;51.574;6.502;2023-07-22T15:41:33;1.98;;;1.70;;
76157;SDS011;64907;51.574;6.502;2023-07-22T15:43:59;2.10;;;2.00;;
76157;SDS011;64907;51.574;6.502;2023-07-22T15:46:24;3.63;;;1.77;;
76157;SDS011;64907;51.574;6.502;2023-07-22T15:48:50;3.92;;;1.80;;
76157;SDS011;64907;51.574;6.502;2023-07-22T15:51:17;2.88;;;2.40;;
76157;SDS011;64907;51.574;6.502;2023-07-22T15:53:42;5.35;;;2.33;;
76157;SDS011;64907;51.574;6.502;2023-07-22T15:56:08;24.03;;;7.20;;
76157;SDS011;64907;51.574;6.502;2023-07-22T15:58:33;3.88;;;2.50;;
76157;SDS011;64907;51.574;6.502;2023-07-22T16:00:58;2.13;;;2.00;;
76157;SDS011;64907;51.574;6.502;2023-07-22T16:03:24;4.03;;;2.40;;
76157;SDS011;64907;51.574;6.502;2023-07-22T16:05:49;2.40;;;2.28;;
76157;SDS011;64907;51.574;6.502;2023-07-22T16:10:47;2.25;;;2.10;;
76157;SDS011;64907;51.574;6.502;2023-07-22T16:13:12;5.18;;;2.60;;
76157;SDS011;64907;51.574;6.502;2023-07-22T16:23:04;3.38;;;2.50;;
76157;SDS011;64907;51.574;6.502;2023-07-22T16:25:29;3.03;;;2.83;;
76157;SDS011;64907;51.574;6.502;2023-07-22T16:30:24;2.90;;;2.65;;
76157;SDS011;64907;51.574;6.502;2023-07-22T16:32:49;3.33;;;2.73;;
76157;SDS011;64907;51.574;6.502;2023-07-22T16:35:14;2.43;;;2.30;;
76157;SDS011;64907;51.574;6.502;2023-07-22T16:40:25;3.45;;;2.35;;
76157;SDS011;64907;51.574;6.502;2023-07-22T16:42:50;3.15;;;2.42;;
76157;SDS011;64907;51.574;6.502;2023-07-22T16:45:15;2.97;;;2.60;;
76157;SDS011;64907;51.574;6.502;2023-07-22T16:47:40;2.80;;;2.60;;
76157;SDS011;64907;51.574;6.502;2023-07-22T16:50:05;3.10;;;2.80;;
76157;SDS011;64907;51.574;6.502;2023-07-22T16:52:32;3.33;;;2.50;;
76157;SDS011;64907;51.574;6.502;2023-07-22T16:54:57;4.63;;;2.53;;
76157;SDS011;64907;51.574;6.502;2023-07-22T16:59:52;4.75;;;2.65;;
76157;SDS011;64907;51.574;6.502;2023-07-22T17:02:17;3.97;;;2.50;;
76157;SDS011;64907;51.574;6.502;2023-07-22T17:04:42;2.90;;;2.70;;
76157;SDS011;64907;51.574;6.502;2023-07-22T17:09:43;3.70;;;2.65;;
76157;SDS011;64907;51.574;6.502;2023-07-22T17:12:11;2.10;;;2.00;;
76157;SDS011;64907;51.574;6.502;2023-07-22T17:14:40;3.58;;;3.17;;
76157;SDS011;64907;51.574;6.502;2023-07-22T17:17:06;3.35;;;2.10;;
76157;SDS011;64907;51.574;6.502;2023-07-22T17:19:32;2.30;;;2.13;;
76157;SDS011;64907;51.574;6.502;2023-07-22T17:21:58;3.40;;;2.47;;
76157;SDS011;64907;51.574;6.502;2023-07-22T17:24:23;3.00;;;2.05;;
76157;SDS011;64907;51.574;6.502;2023-07-22T17:26:48;2.53;;;2.43;;
76157;SDS011;64907;51.574;6.502;2023-07-22T17:29:13;2.57;;;2.37;;